Time;durP1;ratioP1;P1;durP2;ratioP2;P2;SDS_P1;SDS_P2;PMS_P1;PMS_P2;Temp;Humidity;BMP_temperature;BMP_pressure;BME280_temperature;BME280_humidity;BME280_pressure;Samples;Min_cycle;Max_cycle;Signal;HPM_P1;HPM_P2
2023/07/04 00:00:15;;;;;;;4.57;1.35;;;;;;;;;;5066861;28;42135;-24
2023/07/04 00:02:46;;;;;;;6.07;1.60;;;;;;;;;;5067180;28;42738;-24
2023/07/04 00:05:14;;;;;;;4.18;1.25;;;;;;;;;;5066476;28;41365;-24
2023/07/04 00:07:42;;;;;;;5.55;1.40;;;;;;;;;;5066542;28;42656;-24
2023/07/04 00:10:10;;;;;;;3.13;1.10;;;;;;;;;;5067213;28;43636;-25
2023/07/04 00:12:38;;;;;;;1.80;0.95;;;;;;;;;;5065368;28;41887;-24
2023/07/04 00:15:09;;;;;;;5.20;1.33;;;;;;;;;;5067123;28;42878;-24
2023/07/04 00:17:38;;;;;;;5.35;1.40;;;;;;;;;;5065810;28;44887;-24
2023/07/04 00:20:08;;;;;;;4.25;1.50;;;;;;;;;;5065591;28;41096;-24
2023/07/04 00:22:36;;;;;;;4.10;1.58;;;;;;;;;;5066652;28;43515;-24
2023/07/04 00:25:05;;;;;;;5.35;1.63;;;;;;;;;;5066750;28;42281;-25
2023/07/04 00:27:33;;;;;;;5.20;1.42;;;;;;;;;;5058226;28;42719;-25
2023/07/04 00:30:04;;;;;;;5.00;1.67;;;;;;;;;;5066381;28;43158;-24
2023/07/04 00:32:32;;;;;;;5.18;1.48;;;;;;;;;;5066028;28;41544;-28
2023/07/04 00:35:02;;;;;;;5.55;1.42;;;;;;;;;;5065689;28;42786;-24
2023/07/04 00:37:31;;;;;;;4.22;1.50;;;;;;;;;;5081161;28;43437;-24
2023/07/04 00:40:01;;;;;;;5.07;1.30;;;;;;;;;;5060244;28;39893;-24
2023/07/04 00:42:31;;;;;;;4.50;1.38;;;;;;;;;;5071336;28;42465;-24
2023/07/04 00:44:59;;;;;;;4.80;1.63;;;;;;;;;;5066026;28;43664;-24
2023/07/04 00:47:43;;;;;;;4.65;1.42;;;;;;;;;;5063831;28;41652;-24
2023/07/04 00:50:13;;;;;;;4.15;1.58;;;;;;;;;;5064445;28;42088;-24
2023/07/04 00:52:42;;;;;;;4.15;1.65;;;;;;;;;;5066560;28;41604;-24
2023/07/04 00:55:10;;;;;;;5.05;1.98;;;;;;;;;;5065268;28;43124;-24
2023/07/04 00:57:38;;;;;;;2.70;1.40;;;;;;;;;;5065227;28;44047;-24
2023/07/04 01:00:17;;;;;;;4.05;1.70;;;;;;;;;;5066231;28;42031;-24
2023/07/04 01:02:46;;;;;;;2.88;1.27;;;;;;;;;;5062565;28;43773;-24
2023/07/04 01:05:17;;;;;;;3.35;1.25;;;;;;;;;;5064860;28;43459;-24
2023/07/04 01:07:47;;;;;;;4.75;1.67;;;;;;;;;;5062963;28;41490;-24
2023/07/04 01:10:16;;;;;;;4.95;1.45;;;;;;;;;;5065586;28;44009;-24
2023/07/04 01:12:46;;;;;;;4.85;1.67;;;;;;;;;;5079026;28;42201;-25
2023/07/04 01:15:18;;;;;;;4.60;1.70;;;;;;;;;;5051600;28;41586;-24
2023/07/04 01:17:46;;;;;;;3.67;1.52;;;;;;;;;;5061583;28;43383;-24
2023/07/04 01:20:16;;;;;;;3.00;1.30;;;;;;;;;;5065434;28;42308;-24
2023/07/04 01:22:48;;;;;;;3.97;1.75;;;;;;;;;;5062979;28;41269;-24
2023/07/04 01:25:20;;;;;;;4.22;1.70;;;;;;;;;;5063354;28;43479;-23
2023/07/04 01:27:50;;;;;;;4.78;1.92;;;;;;;;;;5063907;28;41295;-23
2023/07/04 01:30:18;;;;;;;6.53;1.70;;;;;;;;;;5064078;28;43710;-23
2023/07/04 01:32:52;;;;;;;3.10;1.42;;;;;;;;;;5065292;28;41077;-24
2023/07/04 01:35:22;;;;;;;3.40;1.80;;;;;;;;;;5063442;28;42423;-23
2023/07/04 01:37:51;;;;;;;3.20;1.38;;;;;;;;;;5062921;28;43240;-23
2023/07/04 01:40:19;;;;;;;3.85;1.50;;;;;;;;;;5064822;28;41750;-23
2023/07/04 01:42:49;;;;;;;6.63;1.45;;;;;;;;;;5064884;28;42744;-23
2023/07/04 01:45:18;;;;;;;5.32;1.50;;;;;;;;;;5061803;28;44023;-23
2023/07/04 01:47:47;;;;;;;4.40;1.33;;;;;;;;;;5063047;28;39378;-22
2023/07/04 01:50:15;;;;;;;5.93;1.73;;;;;;;;;;5079359;28;42794;-24
2023/07/04 01:52:43;;;;;;;7.15;1.80;;;;;;;;;;5065561;28;44346;-24
2023/07/04 01:55:12;;;;;;;6.53;1.88;;;;;;;;;;5065015;28;43265;-24
2023/07/04 01:57:40;;;;;;;4.50;1.42;;;;;;;;;;5064154;28;43072;-24
2023/07/04 02:00:09;;;;;;;5.43;1.55;;;;;;;;;;5063252;28;39861;-24
2023/07/04 02:02:56;;;;;;;4.82;1.55;;;;;;;;;;5065426;28;43132;-24
2023/07/04 02:05:25;;;;;;;6.45;1.73;;;;;;;;;;5063711;28;43649;-24
2023/07/04 02:07:53;;;;;;;8.52;1.77;;;;;;;;;;5064757;28;41199;-24
2023/07/04 02:10:21;;;;;;;5.07;1.85;;;;;;;;;;5064314;28;42624;-24
2023/07/04 02:12:49;;;;;;;6.22;1.75;;;;;;;;;;5062484;28;42122;-24
2023/07/04 02:15:17;;;;;;;5.50;1.67;;;;;;;;;;5065383;28;40867;-24
2023/07/04 02:17:45;;;;;;;4.63;1.50;;;;;;;;;;5068319;28;43567;-24
2023/07/04 02:20:16;;;;;;;5.25;2.10;;;;;;;;;;5067788;28;41233;-24
2023/07/04 02:22:44;;;;;;;4.63;1.70;;;;;;;;;;5073247;28;41246;-24
2023/07/04 02:25:12;;;;;;;5.10;1.90;;;;;;;;;;5068107;28;44513;-24
2023/07/04 02:27:40;;;;;;;5.57;1.98;;;;;;;;;;5066932;28;42064;-24
2023/07/04 02:30:09;;;;;;;4.55;2.20;;;;;;;;;;5068037;28;43659;-25
2023/07/04 02:32:37;;;;;;;3.65;1.55;;;;;;;;;;5065131;28;43218;-24
2023/07/04 02:35:07;;;;;;;6.90;2.22;;;;;;;;;;5066582;28;40937;-25
2023/07/04 02:37:38;;;;;;;6.32;1.92;;;;;;;;;;5066299;28;41481;-24
2023/07/04 02:40:07;;;;;;;5.13;1.75;;;;;;;;;;5066173;28;39850;-25
2023/07/04 02:42:35;;;;;;;9.10;2.22;;;;;;;;;;5066088;28;40727;-25
2023/07/04 02:45:03;;;;;;;7.13;2.10;;;;;;;;;;5066163;28;41631;-25
2023/07/04 02:47:32;;;;;;;7.32;2.00;;;;;;;;;;5099024;28;41414;-25
2023/07/04 02:50:03;;;;;;;7.25;1.95;;;;;;;;;;5065964;28;41297;-25
2023/07/04 02:52:32;;;;;;;7.55;2.67;;;;;;;;;;5067161;28;43390;-25
2023/07/04 02:55:02;;;;;;;5.50;2.03;;;;;;;;;;5068153;28;20743;-25
2023/07/04 02:57:30;;;;;;;7.05;2.47;;;;;;;;;;5066024;28;41899;-25
2023/07/04 02:59:59;;;;;;;3.92;1.80;;;;;;;;;;5067545;28;41350;-24
2023/07/04 03:02:29;;;;;;;3.70;1.85;;;;;;;;;;5064566;28;41191;-25
2023/07/04 03:04:58;;;;;;;6.30;2.42;;;;;;;;;;5065305;28;43743;-25
2023/07/04 03:07:28;;;;;;;6.95;2.50;;;;;;;;;;5065420;28;40010;-25
2023/07/04 03:09:57;;;;;;;5.80;2.60;;;;;;;;;;5065834;28;41236;-24
2023/07/04 03:12:29;;;;;;;11.75;2.60;;;;;;;;;;5065125;28;42463;-25
2023/07/04 03:14:59;;;;;;;6.00;2.08;;;;;;;;;;5065411;28;40181;-25
2023/07/04 03:17:30;;;;;;;7.47;2.15;;;;;;;;;;5065079;28;41411;-25
2023/07/04 03:19:59;;;;;;;6.68;2.00;;;;;;;;;;5065986;28;43032;-25
2023/07/04 03:22:27;;;;;;;6.10;2.58;;;;;;;;;;5077236;28;42650;-25
2023/07/04 03:24:55;;;;;;;8.73;2.85;;;;;;;;;;5061978;28;43489;-25
2023/07/04 03:27:24;;;;;;;4.65;1.70;;;;;;;;;;5063976;28;43740;-25
2023/07/04 03:29:54;;;;;;;6.15;2.28;;;;;;;;;;5077591;28;41980;-25
2023/07/04 03:32:22;;;;;;;4.60;1.98;;;;;;;;;;5065049;28;43138;-26
2023/07/04 03:34:51;;;;;;;5.18;2.13;;;;;;;;;;5065309;28;40967;-25
2023/07/04 03:37:19;;;;;;;10.60;3.00;;;;;;;;;;5066129;28;43299;-25
2023/07/04 03:39:46;;;;;;;6.82;2.00;;;;;;;;;;5067178;28;43264;-25
2023/07/04 03:42:15;;;;;;;5.63;2.40;;;;;;;;;;5065844;28;39678;-25
2023/07/04 03:44:46;;;;;;;6.55;2.40;;;;;;;;;;5063863;28;41934;-24
2023/07/04 03:47:15;;;;;;;4.78;2.28;;;;;;;;;;5065295;28;41139;-25
2023/07/04 03:49:43;;;;;;;5.28;2.17;;;;;;;;;;5066344;28;42591;-24
2023/07/04 03:52:14;;;;;;;7.38;2.33;;;;;;;;;;5065786;28;41937;-25
2023/07/04 03:54:42;;;;;;;5.78;2.40;;;;;;;;;;5065513;28;42097;-25
2023/07/04 03:57:10;;;;;;;5.13;1.70;;;;;;;;;;5066719;28;42939;-25
2023/07/04 03:59:38;;;;;;;8.30;2.55;;;;;;;;;;5064771;28;42151;-25
2023/07/04 04:02:06;;;;;;;6.93;2.90;;;;;;;;;;5067082;28;41134;-25
2023/07/04 04:04:38;;;;;;;7.00;2.35;;;;;;;;;;5066076;28;42835;-25
2023/07/04 04:07:07;;;;;;;6.32;2.25;;;;;;;;;;5064012;28;41738;-23
2023/07/04 04:09:36;;;;;;;5.60;1.90;;;;;;;;;;5066326;28;42700;-23
2023/07/04 04:12:04;;;;;;;6.90;2.33;;;;;;;;;;5066178;28;44162;-24
2023/07/04 04:14:32;;;;;;;5.60;2.08;;;;;;;;;;5065697;28;41430;-24
2023/07/04 04:17:00;;;;;;;6.75;2.30;;;;;;;;;;5066676;28;42544;-24
2023/07/04 04:19:28;;;;;;;8.13;2.53;;;;;;;;;;5065227;28;43523;-23
2023/07/04 04:21:57;;;;;;;6.65;2.50;;;;;;;;;;5066945;28;40993;-24
2023/07/04 04:24:25;;;;;;;5.20;1.88;;;;;;;;;;5065721;28;42655;-24
2023/07/04 04:26:53;;;;;;;7.78;2.10;;;;;;;;;;5065969;28;33154;-24
2023/07/04 04:29:22;;;;;;;5.88;2.60;;;;;;;;;;5066363;28;42703;-24
2023/07/04 04:31:50;;;;;;;7.00;2.22;;;;;;;;;;5060508;28;44535;-24
2023/07/04 04:34:18;;;;;;;9.88;2.10;;;;;;;;;;5065218;28;42393;-24
2023/07/04 04:36:46;;;;;;;9.65;2.70;;;;;;;;;;5066716;28;42963;-24
2023/07/04 04:39:16;;;;;;;6.80;2.33;;;;;;;;;;5065346;28;44190;-24
2023/07/04 04:41:44;;;;;;;4.97;2.22;;;;;;;;;;5065657;28;42282;-24
2023/07/04 04:44:12;;;;;;;7.57;2.03;;;;;;;;;;5065943;28;43726;-24
2023/07/04 04:46:44;;;;;;;7.22;2.55;;;;;;;;;;5064617;28;43157;-24
2023/07/04 04:49:12;;;;;;;5.32;1.83;;;;;;;;;;5065321;28;42458;-24
2023/07/04 04:51:44;;;;;;;5.95;2.17;;;;;;;;;;5065518;28;44404;-24
2023/07/04 04:54:12;;;;;;;5.25;2.00;;;;;;;;;;5062373;28;41689;-25
2023/07/04 04:56:44;;;;;;;6.88;1.70;;;;;;;;;;5065187;28;43210;-24
2023/07/04 04:59:12;;;;;;;5.47;2.03;;;;;;;;;;5065565;28;44051;-25
2023/07/04 05:01:40;;;;;;;7.68;2.30;;;;;;;;;;5064203;28;42742;-24
2023/07/04 05:04:08;;;;;;;5.80;2.35;;;;;;;;;;5065589;28;43777;-24
2023/07/04 05:06:36;;;;;;;6.05;2.00;;;;;;;;;;5065276;28;45697;-24
2023/07/04 05:09:04;;;;;;;4.50;2.00;;;;;;;;;;5066040;28;41518;-24
2023/07/04 05:11:33;;;;;;;5.82;2.25;;;;;;;;;;5061300;28;44516;-23
2023/07/04 05:14:03;;;;;;;6.38;2.30;;;;;;;;;;5060014;28;41682;-24
2023/07/04 05:16:31;;;;;;;5.10;2.20;;;;;;;;;;5058771;28;43125;-24
2023/07/04 05:18:59;;;;;;;6.45;2.67;;;;;;;;;;5058818;28;43327;-24
2023/07/04 05:21:27;;;;;;;6.15;1.90;;;;;;;;;;5063967;28;41060;-24
2023/07/04 05:23:55;;;;;;;4.40;1.85;;;;;;;;;;5064715;28;43814;-24
2023/07/04 05:26:23;;;;;;;6.57;2.40;;;;;;;;;;5064352;28;43583;-24
2023/07/04 05:28:51;;;;;;;6.35;2.50;;;;;;;;;;5064740;28;42397;-24
2023/07/04 05:31:21;;;;;;;5.72;2.50;;;;;;;;;;5064693;28;42638;-24
2023/07/04 05:33:49;;;;;;;9.90;2.88;;;;;;;;;;5064702;28;43139;-24
2023/07/04 05:36:18;;;;;;;7.95;2.63;;;;;;;;;;5063920;28;43196;-24
2023/07/04 05:38:47;;;;;;;10.18;3.40;;;;;;;;;;5064447;28;44491;-25
2023/07/04 05:41:15;;;;;;;8.93;2.88;;;;;;;;;;5065331;28;41962;-24
2023/07/04 05:43:43;;;;;;;8.02;2.78;;;;;;;;;;5064901;28;42686;-24
2023/07/04 05:46:11;;;;;;;10.55;2.65;;;;;;;;;;5064762;28;43314;-24
2023/07/04 05:48:41;;;;;;;7.40;3.22;;;;;;;;;;5064664;28;41814;-24
2023/07/04 05:51:09;;;;;;;11.63;3.30;;;;;;;;;;5064701;28;42593;-24
2023/07/04 05:53:38;;;;;;;8.63;2.72;;;;;;;;;;5065146;28;43470;-24
2023/07/04 05:56:07;;;;;;;9.85;3.55;;;;;;;;;;5065415;28;43885;-24
2023/07/04 05:58:34;;;;;;;12.10;3.03;;;;;;;;;;5064136;28;42994;-25
2023/07/04 06:01:06;;;;;;;10.95;3.85;;;;;;;;;;5065032;28;42079;-24
2023/07/04 06:03:34;;;;;;;13.25;3.60;;;;;;;;;;5061134;28;42544;-24
2023/07/04 06:06:04;;;;;;;9.75;3.45;;;;;;;;;;5064769;28;43982;-24
2023/07/04 06:08:33;;;;;;;10.65;3.40;;;;;;;;;;5064468;28;40616;-24
2023/07/04 06:11:01;;;;;;;9.52;3.97;;;;;;;;;;5064360;28;42970;-24
2023/07/04 06:13:29;;;;;;;9.77;3.83;;;;;;;;;;5064503;28;44281;-23
2023/07/04 06:15:57;;;;;;;9.00;3.75;;;;;;;;;;5065371;28;41036;-24
2023/07/04 06:18:25;;;;;;;12.63;4.32;;;;;;;;;;5062828;28;44902;-24
2023/07/04 06:20:53;;;;;;;12.88;4.05;;;;;;;;;;5064750;28;41291;-24
2023/07/04 06:23:23;;;;;;;10.43;3.53;;;;;;;;;;5064478;28;43348;-24
2023/07/04 06:25:56;;;;;;;10.40;3.85;;;;;;;;;;5064489;28;45734;-24
2023/07/04 06:28:24;;;;;;;11.35;4.00;;;;;;;;;;5064633;28;41583;-23
2023/07/04 06:30:52;;;;;;;11.13;4.47;;;;;;;;;;5058459;28;42816;-24
2023/07/04 06:33:20;;;;;;;12.60;4.03;;;;;;;;;;5063460;28;43983;-23
2023/07/04 06:35:48;;;;;;;14.30;4.32;;;;;;;;;;5063085;28;41038;-24
2023/07/04 06:38:16;;;;;;;12.20;4.30;;;;;;;;;;5063860;28;43161;-23
2023/07/04 06:40:46;;;;;;;15.10;4.85;;;;;;;;;;5064333;28;41252;-24
2023/07/04 06:43:14;;;;;;;10.90;4.43;;;;;;;;;;5063721;28;42042;-24
2023/07/04 06:45:42;;;;;;;11.27;4.13;;;;;;;;;;5063602;28;43875;-23
2023/07/04 06:48:10;;;;;;;16.80;4.80;;;;;;;;;;5062449;28;39852;-24
2023/07/04 06:50:38;;;;;;;11.85;4.15;;;;;;;;;;5063113;28;43690;-24
2023/07/04 06:53:06;;;;;;;13.90;4.60;;;;;;;;;;5062381;28;43396;-25
2023/07/04 06:55:34;;;;;;;15.05;4.32;;;;;;;;;;5058861;28;40863;-26
2023/07/04 06:58:04;;;;;;;11.88;4.78;;;;;;;;;;5063158;28;42883;-25
2023/07/04 07:00:32;;;;;;;13.32;4.35;;;;;;;;;;5063280;28;41060;-26
2023/07/04 07:03:00;;;;;;;18.25;4.63;;;;;;;;;;5064909;28;42964;-23
2023/07/04 07:05:28;;;;;;;15.43;4.15;;;;;;;;;;5054666;28;43505;-25
2023/07/04 07:07:56;;;;;;;11.75;4.60;;;;;;;;;;5062027;28;41219;-25
2023/07/04 07:10:24;;;;;;;18.17;4.63;;;;;;;;;;5062668;28;42641;-25
2023/07/04 07:12:52;;;;;;;12.35;4.35;;;;;;;;;;5063476;28;44449;-26
2023/07/04 07:15:21;;;;;;;18.08;5.20;;;;;;;;;;5056288;28;41374;-25
2023/07/04 07:17:49;;;;;;;15.02;4.20;;;;;;;;;;5062564;28;43436;-25
2023/07/04 07:20:17;;;;;;;14.57;4.35;;;;;;;;;;5061586;28;43359;-25
2023/07/04 07:22:46;;;;;;;17.23;5.40;;;;;;;;;;5059925;28;42832;-25
2023/07/04 07:25:14;;;;;;;13.20;4.35;;;;;;;;;;5053956;28;43968;-25
2023/07/04 07:27:43;;;;;;;13.52;4.32;;;;;;;;;;5058603;28;41975;-26
2023/07/04 07:30:11;;;;;;;13.18;4.35;;;;;;;;;;5061612;28;41288;-25
2023/07/04 07:32:40;;;;;;;12.10;3.80;;;;;;;;;;5062093;28;43345;-26
2023/07/04 07:35:09;;;;;;;17.10;4.95;;;;;;;;;;5061878;28;41546;-26
2023/07/04 07:37:37;;;;;;;19.65;4.93;;;;;;;;;;5066931;28;42492;-25
2023/07/04 07:40:06;;;;;;;16.10;4.13;;;;;;;;;;5066862;28;44233;-25
2023/07/04 07:42:36;;;;;;;11.05;4.40;;;;;;;;;;5066068;28;41636;-24
2023/07/04 07:45:04;;;;;;;12.55;4.70;;;;;;;;;;5066379;28;43363;-24
2023/07/04 07:47:32;;;;;;;13.45;4.57;;;;;;;;;;5066137;28;41656;-24
2023/07/04 07:50:01;;;;;;;11.82;4.70;;;;;;;;;;5059038;28;43746;-24
2023/07/04 07:52:29;;;;;;;13.70;4.18;;;;;;;;;;5064118;28;41786;-24
2023/07/04 07:54:57;;;;;;;13.88;4.57;;;;;;;;;;5066914;28;42145;-24
2023/07/04 07:57:25;;;;;;;11.88;4.22;;;;;;;;;;5065874;28;42134;-24
2023/07/04 07:59:53;;;;;;;12.98;4.22;;;;;;;;;;5057073;28;44682;-24
2023/07/04 08:02:21;;;;;;;12.95;4.47;;;;;;;;;;5065929;28;41357;-23
2023/07/04 08:04:49;;;;;;;14.50;4.25;;;;;;;;;;5062534;28;43141;-23
2023/07/04 08:07:19;;;;;;;12.63;4.03;;;;;;;;;;5064585;28;41632;-23
2023/07/04 08:09:47;;;;;;;9.27;3.95;;;;;;;;;;5066469;28;43394;-25
2023/07/04 08:12:15;;;;;;;13.82;4.22;;;;;;;;;;5065979;28;44582;-23
2023/07/04 08:14:43;;;;;;;14.32;4.72;;;;;;;;;;5062083;28;42062;-23
2023/07/04 08:17:11;;;;;;;14.32;3.60;;;;;;;;;;5066156;28;43202;-23
2023/07/04 08:19:39;;;;;;;10.60;4.05;;;;;;;;;;5064928;28;44434;-22
2023/07/04 08:22:07;;;;;;;17.65;4.25;;;;;;;;;;5066679;28;41867;-22
2023/07/04 08:24:36;;;;;;;15.80;4.88;;;;;;;;;;5065067;28;42770;-23
2023/07/04 08:27:04;;;;;;;12.65;3.55;;;;;;;;;;5057229;28;43573;-23
2023/07/04 08:29:32;;;;;;;8.05;3.53;;;;;;;;;;5066132;28;42497;-22
2023/07/04 08:32:00;;;;;;;12.70;4.38;;;;;;;;;;5065438;28;43689;-22
2023/07/04 08:34:28;;;;;;;12.00;3.83;;;;;;;;;;5065473;28;41383;-23
2023/07/04 08:36:56;;;;;;;13.90;4.20;;;;;;;;;;5066133;28;43624;-23
2023/07/04 08:39:24;;;;;;;18.08;4.97;;;;;;;;;;5063552;28;43917;-22
2023/07/04 08:41:57;;;;;;;14.80;4.45;;;;;;;;;;5058377;28;40844;-22
2023/07/04 08:44:26;;;;;;;12.50;3.65;;;;;;;;;;5062597;28;42406;-22
2023/07/04 08:46:54;;;;;;;10.27;3.97;;;;;;;;;;5065474;28;43904;-22
2023/07/04 08:49:28;;;;;;;13.05;3.65;;;;;;;;;;5064910;28;43169;-24
2023/07/04 08:51:58;;;;;;;10.57;3.70;;;;;;;;;;5058727;28;42956;-25
2023/07/04 08:54:27;;;;;;;10.27;3.92;;;;;;;;;;5065053;28;41091;-25
2023/07/04 08:56:58;;;;;;;10.35;3.78;;;;;;;;;;5064688;28;43010;-25
2023/07/04 08:59:32;;;;;;;9.95;3.70;;;;;;;;;;5054812;28;44146;-25
2023/07/04 09:02:05;;;;;;;14.02;3.47;;;;;;;;;;5061205;28;41571;-25
2023/07/04 09:04:37;;;;;;;9.77;3.20;;;;;;;;;;5053186;28;43141;-28
2023/07/04 09:07:06;;;;;;;12.50;3.90;;;;;;;;;;5063838;28;43010;-24
2023/07/04 09:09:39;;;;;;;10.80;3.78;;;;;;;;;;5062160;28;41173;-25
2023/07/04 09:12:08;;;;;;;12.40;3.50;;;;;;;;;;5060291;28;43298;-26
2023/07/04 09:14:37;;;;;;;10.82;3.72;;;;;;;;;;5062425;28;41938;-26
2023/07/04 09:17:09;;;;;;;10.63;3.70;;;;;;;;;;5061766;28;42197;-26
2023/07/04 09:19:37;;;;;;;9.07;3.33;;;;;;;;;;5063775;28;43153;-25
2023/07/04 09:22:05;;;;;;;11.88;3.13;;;;;;;;;;5062223;28;40830;-25
2023/07/04 09:24:34;;;;;;;8.30;3.30;;;;;;;;;;5064568;28;42331;-25
2023/07/04 09:27:02;;;;;;;8.75;3.20;;;;;;;;;;5058420;28;44317;-26
2023/07/04 09:29:31;;;;;;;12.02;3.35;;;;;;;;;;5064766;28;40745;-27
2023/07/04 09:32:00;;;;;;;10.32;3.47;;;;;;;;;;5065680;28;42804;-25
2023/07/04 09:34:30;;;;;;;10.20;3.33;;;;;;;;;;5062904;28;41464;-25
2023/07/04 09:36:58;;;;;;;9.25;3.47;;;;;;;;;;5063737;28;42707;-26
2023/07/04 09:39:30;;;;;;;13.98;3.72;;;;;;;;;;5059237;28;43625;-25
2023/07/04 09:41:59;;;;;;;9.93;3.38;;;;;;;;;;5061322;28;41003;-25
2023/07/04 09:44:31;;;;;;;10.32;2.92;;;;;;;;;;5062624;28;41360;-24
2023/07/04 09:47:00;;;;;;;8.65;3.58;;;;;;;;;;5063793;28;43283;-30
2023/07/04 09:49:29;;;;;;;9.77;3.58;;;;;;;;;;5057600;28;41266;-25
2023/07/04 09:51:58;;;;;;;10.82;3.20;;;;;;;;;;5064059;28;42717;-27
2023/07/04 09:54:26;;;;;;;13.80;4.03;;;;;;;;;;5065122;28;44661;-25
2023/07/04 09:56:54;;;;;;;9.77;3.25;;;;;;;;;;5063875;28;43241;-24
2023/07/04 09:59:23;;;;;;;7.88;3.00;;;;;;;;;;5063380;28;43157;-27
2023/07/04 10:01:51;;;;;;;8.40;2.95;;;;;;;;;;5063506;28;41854;-24
2023/07/04 10:04:28;;;;;;;11.80;3.22;;;;;;;;;;5063589;28;43736;-24
2023/07/04 10:06:56;;;;;;;6.30;2.65;;;;;;;;;;5062358;28;42816;-25
2023/07/04 10:09:25;;;;;;;9.27;3.40;;;;;;;;;;5064303;28;41202;-25
2023/07/04 10:11:54;;;;;;;8.25;2.50;;;;;;;;;;5061162;28;43222;-24
2023/07/04 10:14:31;;;;;;;8.02;2.50;;;;;;;;;;5064241;28;44572;-25
2023/07/04 10:17:07;;;;;;;8.73;2.35;;;;;;;;;;5061906;28;41333;-24
2023/07/04 10:19:41;;;;;;;10.27;2.63;;;;;;;;;;5053126;28;43280;-25
2023/07/04 10:22:09;;;;;;;12.45;2.65;;;;;;;;;;5060405;28;41002;-27
2023/07/04 10:24:37;;;;;;;8.43;2.28;;;;;;;;;;5060570;28;42354;-25
2023/07/04 10:27:06;;;;;;;11.70;2.75;;;;;;;;;;5058187;28;42051;-25
2023/07/04 10:29:36;;;;;;;7.40;2.13;;;;;;;;;;5063634;28;41684;-27
2023/07/04 10:32:06;;;;;;;4.35;1.92;;;;;;;;;;5063739;28;43780;-25
2023/07/04 10:34:34;;;;;;;9.65;2.92;;;;;;;;;;5064242;28;43309;-24
2023/07/04 10:37:04;;;;;;;10.18;2.55;;;;;;;;;;5065760;28;41396;-27
2023/07/04 10:39:32;;;;;;;10.88;3.05;;;;;;;;;;5066895;28;43060;-26
2023/07/04 10:42:02;;;;;;;7.18;2.53;;;;;;;;;;5067678;28;40780;-25
2023/07/04 10:44:30;;;;;;;10.82;2.75;;;;;;;;;;5067047;28;42520;-25
2023/07/04 10:46:59;;;;;;;8.15;2.40;;;;;;;;;;5066554;28;43361;-24
2023/07/04 10:49:28;;;;;;;11.85;2.00;;;;;;;;;;5067143;28;41160;-24
2023/07/04 10:51:57;;;;;;;5.85;2.13;;;;;;;;;;5067113;28;42776;-24
2023/07/04 10:54:26;;;;;;;7.28;2.28;;;;;;;;;;5067495;28;43321;-24
2023/07/04 10:56:56;;;;;;;7.60;2.55;;;;;;;;;;5067386;28;41786;-24
2023/07/04 10:59:28;;;;;;;6.70;2.45;;;;;;;;;;5062734;28;42619;-24
2023/07/04 11:01:59;;;;;;;11.38;3.10;;;;;;;;;;5059085;28;41285;-24
2023/07/04 11:04:28;;;;;;;9.57;2.88;;;;;;;;;;5057655;28;43744;-24
2023/07/04 11:06:56;;;;;;;10.02;2.92;;;;;;;;;;5066417;28;43434;-24
2023/07/04 11:09:24;;;;;;;3.97;1.80;;;;;;;;;;5065361;28;42088;-24
2023/07/04 11:11:54;;;;;;;7.07;2.20;;;;;;;;;;5064795;28;43671;-25
2023/07/04 11:14:23;;;;;;;8.35;2.20;;;;;;;;;;5065817;28;43372;-24
2023/07/04 11:16:52;;;;;;;6.88;2.40;;;;;;;;;;5068226;28;41112;-24
2023/07/04 11:19:21;;;;;;;8.70;2.78;;;;;;;;;;5063969;28;44325;-24
2023/07/04 11:22:09;;;;;;;9.18;2.58;;;;;;;;;;5067146;28;43974;-24
2023/07/04 11:24:38;;;;;;;7.75;2.58;;;;;;;;;;5064084;28;42738;-24
2023/07/04 11:27:13;;;;;;;8.90;2.63;;;;;;;;;;5066807;28;43575;-24
2023/07/04 11:29:50;;;;;;;7.90;2.10;;;;;;;;;;5064098;28;41241;-24
2023/07/04 11:32:20;;;;;;;7.22;2.13;;;;;;;;;;5051114;28;43745;-23
2023/07/04 11:34:48;;;;;;;9.43;2.15;;;;;;;;;;5066544;28;44114;-24
2023/07/04 11:37:17;;;;;;;7.22;2.55;;;;;;;;;;5052630;28;41344;-24
2023/07/04 11:39:48;;;;;;;5.72;2.30;;;;;;;;;;5067407;28;42526;-24
2023/07/04 11:42:18;;;;;;;9.20;2.42;;;;;;;;;;5062776;28;43103;-24
2023/07/04 11:44:48;;;;;;;6.63;2.30;;;;;;;;;;5067227;28;41729;-24
2023/07/04 11:47:18;;;;;;;4.22;1.90;;;;;;;;;;5066529;28;42701;-24
2023/07/04 11:49:53;;;;;;;10.15;2.50;;;;;;;;;;5066204;28;42389;-24
2023/07/04 11:52:25;;;;;;;17.45;3.55;;;;;;;;;;5063646;28;43427;-24
2023/07/04 11:54:55;;;;;;;9.35;2.38;;;;;;;;;;5067526;28;45820;-24
2023/07/04 11:57:26;;;;;;;6.88;2.40;;;;;;;;;;5065542;28;40909;-24
2023/07/04 11:59:54;;;;;;;7.10;2.40;;;;;;;;;;5067083;28;42359;-25
2023/07/04 12:02:31;;;;;;;9.52;2.20;;;;;;;;;;5065683;28;43498;-24
2023/07/04 12:04:59;;;;;;;6.07;2.17;;;;;;;;;;5064390;28;41550;-25
2023/07/04 12:07:31;;;;;;;6.63;2.38;;;;;;;;;;5066939;28;42852;-24
2023/07/04 12:10:03;;;;;;;4.68;1.63;;;;;;;;;;5063536;28;42573;-25
2023/07/04 12:12:32;;;;;;;5.60;2.15;;;;;;;;;;5062852;28;43796;-24
2023/07/04 12:15:02;;;;;;;7.75;2.05;;;;;;;;;;5066610;28;43033;-25
2023/07/04 12:17:30;;;;;;;7.57;2.17;;;;;;;;;;5065759;28;42237;-24
2023/07/04 12:20:03;;;;;;;6.30;2.10;;;;;;;;;;5066936;28;42798;-24
2023/07/04 12:22:31;;;;;;;5.93;2.28;;;;;;;;;;5066010;28;44211;-25
2023/07/04 12:25:09;;;;;;;7.30;2.10;;;;;;;;;;5066129;28;41305;-25
2023/07/04 12:27:38;;;;;;;4.85;2.00;;;;;;;;;;5058685;28;42557;-24
2023/07/04 12:30:09;;;;;;;5.65;1.60;;;;;;;;;;5059278;28;43425;-25
2023/07/04 12:32:38;;;;;;;4.47;1.77;;;;;;;;;;5057075;28;43667;-25
2023/07/04 12:35:06;;;;;;;5.25;2.00;;;;;;;;;;5055845;28;44283;-23
2023/07/04 12:37:39;;;;;;;5.82;2.00;;;;;;;;;;5062278;28;40897;-23
2023/07/04 12:40:12;;;;;;;5.10;2.35;;;;;;;;;;5063043;28;42842;-23
2023/07/04 12:42:43;;;;;;;7.25;2.25;;;;;;;;;;5062601;28;43793;-24
2023/07/04 12:45:12;;;;;;;5.90;2.03;;;;;;;;;;5062035;28;42504;-23
2023/07/04 12:47:40;;;;;;;6.32;2.20;;;;;;;;;;5065527;28;42871;-23
2023/07/04 12:50:08;;;;;;;8.40;2.30;;;;;;;;;;5066598;28;43418;-23
2023/07/04 12:52:37;;;;;;;6.88;2.53;;;;;;;;;;5065203;28;40694;-23
2023/07/04 12:55:05;;;;;;;6.07;2.03;;;;;;;;;;5065173;28;44398;-23
2023/07/04 12:57:33;;;;;;;6.47;2.33;;;;;;;;;;5065546;28;41093;-23
2023/07/04 13:00:10;;;;;;;6.72;2.35;;;;;;;;;;5065757;28;44093;-23
2023/07/04 13:02:38;;;;;;;5.55;2.15;;;;;;;;;;5062900;28;43708;-23
2023/07/04 13:05:06;;;;;;;9.57;2.10;;;;;;;;;;5057502;28;42258;-24
2023/07/04 13:07:34;;;;;;;6.38;2.10;;;;;;;;;;5064409;28;42925;-23
2023/07/04 13:10:03;;;;;;;4.57;2.05;;;;;;;;;;5065615;28;43912;-23
2023/07/04 13:12:31;;;;;;;5.00;2.05;;;;;;;;;;5065112;28;41944;-23
2023/07/04 13:15:06;;;;;;;6.97;2.25;;;;;;;;;;5054276;28;44586;-23
2023/07/04 13:17:35;;;;;;;6.80;1.88;;;;;;;;;;5064877;28;41974;-29
2023/07/04 13:20:10;;;;;;;5.65;2.05;;;;;;;;;;5063115;28;42495;-24
2023/07/04 13:22:38;;;;;;;5.93;1.88;;;;;;;;;;5063579;28;42984;-25
2023/07/04 13:25:19;;;;;;;7.53;2.28;;;;;;;;;;5061088;28;41498;-24
2023/07/04 13:27:50;;;;;;;5.18;2.08;;;;;;;;;;5060163;28;42735;-24
2023/07/04 13:30:25;;;;;;;8.43;2.15;;;;;;;;;;5061637;28;41621;-26
2023/07/04 13:32:54;;;;;;;10.38;2.63;;;;;;;;;;5063246;28;42050;-25
2023/07/04 13:35:29;;;;;;;5.95;1.73;;;;;;;;;;5062152;28;42742;-24
2023/07/04 13:37:57;;;;;;;7.65;2.15;;;;;;;;;;5064927;28;42102;-26
2023/07/04 13:40:45;;;;;;;5.50;1.60;;;;;;;;;;5051711;28;42840;-24
2023/07/04 13:43:13;;;;;;;5.50;2.17;;;;;;;;;;5065291;28;43980;-26
2023/07/04 13:45:44;;;;;;;7.78;2.45;;;;;;;;;;5063105;28;42577;-24
2023/07/04 13:48:14;;;;;;;5.05;2.05;;;;;;;;;;5064650;28;43150;-24
2023/07/04 13:50:42;;;;;;;5.07;1.73;;;;;;;;;;5064843;28;44443;-26
2023/07/04 13:53:10;;;;;;;4.50;2.10;;;;;;;;;;5065273;28;41276;-25
2023/07/04 13:55:43;;;;;;;7.20;1.95;;;;;;;;;;5061720;28;44112;-25
2023/07/04 13:58:11;;;;;;;8.23;1.92;;;;;;;;;;5065833;28;42929;-29
2023/07/04 14:00:39;;;;;;;6.93;2.15;;;;;;;;;;5064253;28;42418;-25
2023/07/04 14:03:30;;;;;;;5.95;2.15;;;;;;;;;;5062460;28;43871;-27
2023/07/04 14:06:02;;;;;;;5.88;2.10;;;;;;;;;;5062708;28;41297;-25
2023/07/04 14:08:31;;;;;;;6.70;1.98;;;;;;;;;;5064494;28;43269;-26
2023/07/04 14:11:00;;;;;;;5.53;1.88;;;;;;;;;;5064547;28;43075;-25
2023/07/04 14:13:29;;;;;;;5.90;1.88;;;;;;;;;;5066174;28;39824;-27
2023/07/04 14:15:57;;;;;;;8.77;2.20;;;;;;;;;;5067966;28;43268;-27
2023/07/04 14:18:29;;;;;;;4.05;1.98;;;;;;;;;;5054062;28;43500;-28
2023/07/04 14:21:18;;;;;;;4.72;2.03;;;;;;;;;;5068074;28;43119;-25
2023/07/04 14:23:46;;;;;;;4.88;2.10;;;;;;;;;;5067938;28;43005;-27
2023/07/04 14:26:14;;;;;;;4.85;2.22;;;;;;;;;;5068946;28;41087;-25
2023/07/04 14:28:43;;;;;;;4.32;1.77;;;;;;;;;;5067658;28;43743;-25
2023/07/04 14:31:11;;;;;;;3.88;1.90;;;;;;;;;;5067595;28;44495;-24
2023/07/04 14:33:41;;;;;;;3.83;1.77;;;;;;;;;;5066566;28;42049;-25
2023/07/04 14:36:09;;;;;;;5.15;2.13;;;;;;;;;;5066999;28;43655;-26
2023/07/04 14:38:36;;;;;;;4.93;1.90;;;;;;;;;;5066716;28;44348;-27
2023/07/04 14:41:05;;;;;;;4.15;2.10;;;;;;;;;;5068766;28;41974;-27
2023/07/04 14:43:36;;;;;;;6.40;2.22;;;;;;;;;;5067024;28;43268;-24
2023/07/04 14:46:04;;;;;;;4.65;1.90;;;;;;;;;;5067028;28;42127;-23
2023/07/04 14:48:34;;;;;;;6.60;2.17;;;;;;;;;;5062445;28;43905;-22
2023/07/04 14:51:05;;;;;;;3.92;1.80;;;;;;;;;;5067521;28;43347;-24